sensor_id;sensor_type;location;lat;lon;timestamp;pressure;altitude;pressure_sealevel;temperature;humidity
39141;BME280;24875;48.436;10.298;2023-04-25T00:01:50;95653.84;;;8.15;89.95
39141;BME280;24875;48.436;10.298;2023-04-25T00:04:17;95648.41;;;8.16;89.90
39141;BME280;24875;48.436;10.298;2023-04-25T00:06:44;95659.09;;;8.15;87.74
39141;BME280;24875;48.436;10.298;2023-04-25T00:09:11;95644.63;;;8.19;88.47
39141;BME280;24875;48.436;10.298;2023-04-25T00:11:37;95649.50;;;8.22;86.71
39141;BME280;24875;48.436;10.298;2023-04-25T00:14:04;95643.56;;;8.28;86.46
39141;BME280;24875;48.436;10.298;2023-04-25T00:16:32;95639.94;;;8.29;87.55
39141;BME280;24875;48.436;10.298;2023-04-25T00:19:01;95646.13;;;8.36;87.92
39141;BME280;24875;48.436;10.298;2023-04-25T00:21:28;95644.47;;;8.35;88.26
39141;BME280;24875;48.436;10.298;2023-04-25T00:23:56;95634.34;;;8.32;88.54
39141;BME280;24875;48.436;10.298;2023-04-25T00:26:23;95637.94;;;8.31;88.86
39141;BME280;24875;48.436;10.298;2023-04-25T00:28:50;95625.47;;;8.33;89.15
39141;BME280;24875;48.436;10.298;2023-04-25T00:31:16;95636.41;;;8.36;89.22
39141;BME280;24875;48.436;10.298;2023-04-25T00:33:43;95631.72;;;8.32;89.02
39141;BME280;24875;48.436;10.298;2023-04-25T00:36:11;95625.47;;;8.33;89.01
39141;BME280;24875;48.436;10.298;2023-04-25T00:38:37;95621.03;;;8.33;89.23
39141;BME280;24875;48.436;10.298;2023-04-25T00:41:05;95627.31;;;8.47;90.96
39141;BME280;24875;48.436;10.298;2023-04-25T00:43:32;95615.53;;;8.43;90.62
39141;BME280;24875;48.436;10.298;2023-04-25T00:45:59;95612.28;;;8.41;90.86
39141;BME280;24875;48.436;10.298;2023-04-25T00:48:26;95600.97;;;8.40;91.58
39141;BME280;24875;48.436;10.298;2023-04-25T00:50:54;95586.28;;;8.31;88.37
39141;BME280;24875;48.436;10.298;2023-04-25T00:53:23;95597.44;;;8.11;91.71
39141;BME280;24875;48.436;10.298;2023-04-25T00:55:51;95619.56;;;8.16;91.08
39141;BME280;24875;48.436;10.298;2023-04-25T00:58:17;95611.78;;;8.23;89.86
39141;BME280;24875;48.436;10.298;2023-04-25T01:00:44;95615.16;;;8.09;90.85
39141;BME280;24875;48.436;10.298;2023-04-25T01:03:12;95610.44;;;8.04;91.53
39141;BME280;24875;48.436;10.298;2023-04-25T01:05:39;95610.69;;;8.17;89.47
39141;BME280;24875;48.436;10.298;2023-04-25T01:08:07;95609.06;;;8.16;90.70
39141;BME280;24875;48.436;10.298;2023-04-25T01:10:35;95599.72;;;8.14;91.59
39141;BME280;24875;48.436;10.298;2023-04-25T01:13:01;95605.44;;;8.17;91.58
39141;BME280;24875;48.436;10.298;2023-04-25T01:15:28;95601.38;;;8.15;91.72
39141;BME280;24875;48.436;10.298;2023-04-25T01:17:55;95597.09;;;7.91;91.50
39141;BME280;24875;48.436;10.298;2023-04-25T01:20:23;95607.47;;;7.85;92.58
39141;BME280;24875;48.436;10.298;2023-04-25T01:22:54;95607.28;;;8.09;92.93
39141;BME280;24875;48.436;10.298;2023-04-25T01:25:21;95599.97;;;8.04;92.88
39141;BME280;24875;48.436;10.298;2023-04-25T01:27:48;95594.94;;;7.95;93.29
39141;BME280;24875;48.436;10.298;2023-04-25T01:30:15;95592.31;;;7.95;93.37
39141;BME280;24875;48.436;10.298;2023-04-25T01:32:42;95597.63;;;7.87;94.46
39141;BME280;24875;48.436;10.298;2023-04-25T01:35:10;95601.25;;;7.86;94.78
39141;BME280;24875;48.436;10.298;2023-04-25T01:37:37;95609.78;;;7.80;95.44
39141;BME280;24875;48.436;10.298;2023-04-25T01:40:07;95610.63;;;7.81;95.58
39141;BME280;24875;48.436;10.298;2023-04-25T01:42:35;95605.97;;;7.90;94.06
39141;BME280;24875;48.436;10.298;2023-04-25T01:45:02;95601.72;;;7.89;93.83
39141;BME280;24875;48.436;10.298;2023-04-25T01:47:29;95604.56;;;8.02;94.00
39141;BME280;24875;48.436;10.298;2023-04-25T01:49:55;95600.22;;;8.09;94.50
39141;BME280;24875;48.436;10.298;2023-04-25T01:52:22;95600.34;;;8.16;94.34
39141;BME280;24875;48.436;10.298;2023-04-25T01:54:49;95604.72;;;8.23;94.44
39141;BME280;24875;48.436;10.298;2023-04-25T01:57:18;95607.16;;;8.25;92.76
39141;BME280;24875;48.436;10.298;2023-04-25T01:59:45;95600.22;;;8.32;90.12
39141;BME280;24875;48.436;10.298;2023-04-25T02:02:12;95606.03;;;8.42;89.62
39141;BME280;24875;48.436;10.298;2023-04-25T02:04:39;95602.41;;;8.43;88.98
39141;BME280;24875;48.436;10.298;2023-04-25T02:07:05;95592.53;;;8.45;90.15
39141;BME280;24875;48.436;10.298;2023-04-25T02:09:32;95597.34;;;8.55;87.94
39141;BME280;24875;48.436;10.298;2023-04-25T02:11:58;95594.19;;;8.46;88.96
39141;BME280;24875;48.436;10.298;2023-04-25T02:14:26;95595.63;;;8.62;87.92
39141;BME280;24875;48.436;10.298;2023-04-25T02:16:53;95598.34;;;8.54;89.48
39141;BME280;24875;48.436;10.298;2023-04-25T02:19:20;95594.72;;;8.55;89.69
39141;BME280;24875;48.436;10.298;2023-04-25T02:21:46;95593.00;;;8.48;89.66
39141;BME280;24875;48.436;10.298;2023-04-25T02:24:13;95595.25;;;8.65;88.75
39141;BME280;24875;48.436;10.298;2023-04-25T02:26:39;95591.94;;;8.57;89.74
39141;BME280;24875;48.436;10.298;2023-04-25T02:29:06;95596.34;;;8.56;89.13
39141;BME280;24875;48.436;10.298;2023-04-25T02:31:34;95583.22;;;8.56;89.85
39141;BME280;24875;48.436;10.298;2023-04-25T02:34:01;95585.94;;;8.63;90.83
39141;BME280;24875;48.436;10.298;2023-04-25T02:36:27;95569.75;;;8.59;90.84
39141;BME280;24875;48.436;10.298;2023-04-25T02:38:57;95571.28;;;8.68;93.22
39141;BME280;24875;48.436;10.298;2023-04-25T02:41:23;95568.38;;;8.63;95.20
39141;BME280;24875;48.436;10.298;2023-04-25T02:43:50;95566.84;;;8.54;96.90
39141;BME280;24875;48.436;10.298;2023-04-25T02:46:16;95570.72;;;8.58;97.78
39141;BME280;24875;48.436;10.298;2023-04-25T02:48:44;95578.59;;;8.73;94.05
39141;BME280;24875;48.436;10.298;2023-04-25T02:51:11;95594.91;;;8.68;93.57
39141;BME280;24875;48.436;10.298;2023-04-25T02:53:37;95588.50;;;8.71;93.20
39141;BME280;24875;48.436;10.298;2023-04-25T02:56:04;95593.28;;;8.67;91.41
39141;BME280;24875;48.436;10.298;2023-04-25T02:58:31;95598.97;;;8.56;92.21
39141;BME280;24875;48.436;10.298;2023-04-25T03:00:57;95587.47;;;8.57;92.69
39141;BME280;24875;48.436;10.298;2023-04-25T03:03:24;95584.41;;;8.68;93.35
39141;BME280;24875;48.436;10.298;2023-04-25T03:05:52;95586.22;;;8.68;95.11
39141;BME280;24875;48.436;10.298;2023-04-25T03:08:18;95587.94;;;8.61;93.25
39141;BME280;24875;48.436;10.298;2023-04-25T03:10:45;95583.50;;;8.61;92.63
39141;BME280;24875;48.436;10.298;2023-04-25T03:13:12;95582.22;;;8.57;94.44
39141;BME280;24875;48.436;10.298;2023-04-25T03:15:38;95574.72;;;8.69;94.56
39141;BME280;24875;48.436;10.298;2023-04-25T03:18:05;95572.81;;;8.77;95.31
39141;BME280;24875;48.436;10.298;2023-04-25T03:20:31;95574.69;;;8.83;96.77
39141;BME280;24875;48.436;10.298;2023-04-25T03:22:59;95577.16;;;8.85;96.71
39141;BME280;24875;48.436;10.298;2023-04-25T03:25:25;95578.41;;;8.74;95.66
39141;BME280;24875;48.436;10.298;2023-04-25T03:27:52;95580.31;;;8.80;96.31
39141;BME280;24875;48.436;10.298;2023-04-25T03:30:18;95571.81;;;8.64;95.86
39141;BME280;24875;48.436;10.298;2023-04-25T03:32:45;95573.00;;;8.76;93.96
39141;BME280;24875;48.436;10.298;2023-04-25T03:35:11;95560.56;;;8.84;95.76
39141;BME280;24875;48.436;10.298;2023-04-25T03:37:38;95566.91;;;8.75;94.90
39141;BME280;24875;48.436;10.298;2023-04-25T03:40:08;95563.75;;;8.80;94.61
39141;BME280;24875;48.436;10.298;2023-04-25T03:42:34;95571.63;;;8.65;94.43
39141;BME280;24875;48.436;10.298;2023-04-25T03:45:01;95568.56;;;8.62;93.55
39141;BME280;24875;48.436;10.298;2023-04-25T03:47:27;95576.97;;;8.57;94.29
39141;BME280;24875;48.436;10.298;2023-04-25T03:49:54;95563.22;;;8.55;94.33
39141;BME280;24875;48.436;10.298;2023-04-25T03:52:21;95573.09;;;8.53;94.59
39141;BME280;24875;48.436;10.298;2023-04-25T03:54:47;95569.75;;;8.59;94.44
39141;BME280;24875;48.436;10.298;2023-04-25T03:57:15;95571.09;;;8.55;94.96
39141;BME280;24875;48.436;10.298;2023-04-25T03:59:41;95579.78;;;8.56;95.56
39141;BME280;24875;48.436;10.298;2023-04-25T04:02:08;95568.91;;;8.59;94.92
39141;BME280;24875;48.436;10.298;2023-04-25T04:04:34;95568.53;;;8.48;94.68
39141;BME280;24875;48.436;10.298;2023-04-25T04:07:01;95559.84;;;8.61;94.82
39141;BME280;24875;48.436;10.298;2023-04-25T04:09:28;95556.44;;;8.47;94.58
39141;BME280;24875;48.436;10.298;2023-04-25T04:11:54;95563.50;;;8.60;95.38
39141;BME280;24875;48.436;10.298;2023-04-25T04:14:22;95565.38;;;8.66;95.77
39141;BME280;24875;48.436;10.298;2023-04-25T04:16:50;95569.38;;;8.62;93.92
39141;BME280;24875;48.436;10.298;2023-04-25T04:19:17;95568.34;;;8.35;96.70
39141;BME280;24875;48.436;10.298;2023-04-25T04:21:43;95577.34;;;8.54;93.25
39141;BME280;24875;48.436;10.298;2023-04-25T04:24:10;95568.75;;;8.60;93.39
39141;BME280;24875;48.436;10.298;2023-04-25T04:26:36;95574.16;;;8.59;95.79
39141;BME280;24875;48.436;10.298;2023-04-25T04:29:03;95576.16;;;8.57;95.50
39141;BME280;24875;48.436;10.298;2023-04-25T04:31:31;95581.50;;;8.63;96.24
39141;BME280;24875;48.436;10.298;2023-04-25T04:33:58;95583.03;;;8.44;95.74
39141;BME280;24875;48.436;10.298;2023-04-25T04:36:24;95576.50;;;8.54;95.27
39141;BME280;24875;48.436;10.298;2023-04-25T04:38:51;95579.16;;;8.68;95.84
39141;BME280;24875;48.436;10.298;2023-04-25T04:41:19;95586.50;;;8.58;96.84
39141;BME280;24875;48.436;10.298;2023-04-25T04:43:45;95584.84;;;8.57;95.18
39141;BME280;24875;48.436;10.298;2023-04-25T04:46:12;95575.00;;;8.59;95.29
39141;BME280;24875;48.436;10.298;2023-04-25T04:48:40;95585.41;;;8.67;95.22
39141;BME280;24875;48.436;10.298;2023-04-25T04:51:07;95589.28;;;8.43;94.79
39141;BME280;24875;48.436;10.298;2023-04-25T04:53:34;95584.03;;;8.43;94.86
39141;BME280;24875;48.436;10.298;2023-04-25T04:56:00;95584.47;;;8.46;95.60
39141;BME280;24875;48.436;10.298;2023-04-25T04:58:27;95595.44;;;8.49;95.88
39141;BME280;24875;48.436;10.298;2023-04-25T05:00:54;95595.06;;;8.52;94.73
39141;BME280;24875;48.436;10.298;2023-04-25T05:03:21;95594.00;;;8.61;94.99
39141;BME280;24875;48.436;10.298;2023-04-25T05:05:49;95594.81;;;8.62;94.72
39141;BME280;24875;48.436;10.298;2023-04-25T05:08:15;95598.16;;;8.56;94.79
39141;BME280;24875;48.436;10.298;2023-04-25T05:10:41;95596.00;;;8.59;93.79
39141;BME280;24875;48.436;10.298;2023-04-25T05:13:08;95593.38;;;8.59;93.62
39141;BME280;24875;48.436;10.298;2023-04-25T05:15:34;95590.38;;;8.62;93.47
39141;BME280;24875;48.436;10.298;2023-04-25T05:18:01;95594.53;;;8.71;92.89
39141;BME280;24875;48.436;10.298;2023-04-25T05:20:28;95587.50;;;8.72;93.13
39141;BME280;24875;48.436;10.298;2023-04-25T05:22:55;95585.69;;;8.72;92.80
39141;BME280;24875;48.436;10.298;2023-04-25T05:25:22;95589.66;;;8.68;94.16
39141;BME280;24875;48.436;10.298;2023-04-25T05:27:49;95593.47;;;8.66;92.89
39141;BME280;24875;48.436;10.298;2023-04-25T05:30:16;95592.72;;;8.57;93.33
39141;BME280;24875;48.436;10.298;2023-04-25T05:32:42;95586.38;;;8.66;93.40
39141;BME280;24875;48.436;10.298;2023-04-25T05:35:09;95582.59;;;8.54;95.06
39141;BME280;24875;48.436;10.298;2023-04-25T05:37:35;95586.13;;;8.47;97.50
39141;BME280;24875;48.436;10.298;2023-04-25T05:40:04;95580.16;;;8.53;98.05
39141;BME280;24875;48.436;10.298;2023-04-25T05:42:31;95578.59;;;8.58;98.63
39141;BME280;24875;48.436;10.298;2023-04-25T05:44:58;95592.13;;;8.55;98.74
39141;BME280;24875;48.436;10.298;2023-04-25T05:47:24;95596.16;;;8.44;98.74
39141;BME280;24875;48.436;10.298;2023-04-25T05:49:51;95597.19;;;8.57;99.96
39141;BME280;24875;48.436;10.298;2023-04-25T05:52:18;95603.84;;;8.45;99.62
39141;BME280;24875;48.436;10.298;2023-04-25T05:54:44;95590.28;;;8.56;98.88
39141;BME280;24875;48.436;10.298;2023-04-25T05:57:20;95586.47;;;8.73;99.80
39141;BME280;24875;48.436;10.298;2023-04-25T05:59:46;95587.59;;;8.78;100.00
39141;BME280;24875;48.436;10.298;2023-04-25T06:02:13;95585.47;;;8.88;100.00
39141;BME280;24875;48.436;10.298;2023-04-25T06:04:39;95590.00;;;8.94;100.00
39141;BME280;24875;48.436;10.298;2023-04-25T06:07:06;95597.09;;;8.94;97.82
39141;BME280;24875;48.436;10.298;2023-04-25T06:09:33;95601.88;;;9.05;98.16
39141;BME280;24875;48.436;10.298;2023-04-25T06:12:00;95603.78;;;9.10;98.60
39141;BME280;24875;48.436;10.298;2023-04-25T06:14:28;95607.13;;;9.05;97.51
39141;BME280;24875;48.436;10.298;2023-04-25T06:16:55;95605.41;;;9.11;97.41
39141;BME280;24875;48.436;10.298;2023-04-25T06:19:22;95600.63;;;8.86;99.09
39141;BME280;24875;48.436;10.298;2023-04-25T06:21:48;95595.91;;;8.82;98.42
39141;BME280;24875;48.436;10.298;2023-04-25T06:24:15;95602.69;;;8.76;98.13
39141;BME280;24875;48.436;10.298;2023-04-25T06:26:41;95594.00;;;8.90;97.25
39141;BME280;24875;48.436;10.298;2023-04-25T06:29:07;95586.56;;;8.79;95.97
39141;BME280;24875;48.436;10.298;2023-04-25T06:31:35;95589.09;;;9.02;94.86
39141;BME280;24875;48.436;10.298;2023-04-25T06:34:02;95589.75;;;8.89;95.05
39141;BME280;24875;48.436;10.298;2023-04-25T06:36:28;95582.03;;;9.02;95.49
39141;BME280;24875;48.436;10.298;2023-04-25T06:38:55;95574.13;;;9.16;94.23
39141;BME280;24875;48.436;10.298;2023-04-25T06:41:22;95576.00;;;9.37;92.86
39141;BME280;24875;48.436;10.298;2023-04-25T06:43:48;95573.75;;;9.55;91.05
39141;BME280;24875;48.436;10.298;2023-04-25T06:46:15;95576.22;;;9.42;91.39
39141;BME280;24875;48.436;10.298;2023-04-25T06:48:43;95580.03;;;9.39;91.58
39141;BME280;24875;48.436;10.298;2023-04-25T06:51:09;95578.84;;;9.42;92.80
39141;BME280;24875;48.436;10.298;2023-04-25T06:53:36;95574.88;;;9.46;92.77
39141;BME280;24875;48.436;10.298;2023-04-25T06:56:03;95563.19;;;9.69;90.69
39141;BME280;24875;48.436;10.298;2023-04-25T06:58:29;95573.81;;;9.61;90.20
39141;BME280;24875;48.436;10.298;2023-04-25T07:00:56;95578.03;;;9.97;89.96
39141;BME280;24875;48.436;10.298;2023-04-25T07:03:22;95578.41;;;10.15;87.22
39141;BME280;24875;48.436;10.298;2023-04-25T07:05:50;95572.91;;;10.37;85.93
39141;BME280;24875;48.436;10.298;2023-04-25T07:08:17;95571.34;;;10.43;85.21
39141;BME280;24875;48.436;10.298;2023-04-25T07:10:43;95575.34;;;10.39;84.50
39141;BME280;24875;48.436;10.298;2023-04-25T07:13:11;95570.41;;;10.57;82.74
39141;BME280;24875;48.436;10.298;2023-04-25T07:15:37;95570.94;;;10.46;82.18
39141;BME280;24875;48.436;10.298;2023-04-25T07:18:04;95579.00;;;10.38;80.89
39141;BME280;24875;48.436;10.298;2023-04-25T07:20:30;95570.66;;;10.34;80.03
39141;BME280;24875;48.436;10.298;2023-04-25T07:22:59;95572.63;;;10.53;81.55
39141;BME280;24875;48.436;10.298;2023-04-25T07:25:25;95568.50;;;10.72;81.63
39141;BME280;24875;48.436;10.298;2023-04-25T07:27:52;95576.56;;;10.70;79.17
39141;BME280;24875;48.436;10.298;2023-04-25T07:30:18;95569.66;;;10.63;80.45
39141;BME280;24875;48.436;10.298;2023-04-25T07:32:45;95573.09;;;10.63;79.99
39141;BME280;24875;48.436;10.298;2023-04-25T07:35:11;95569.66;;;11.03;80.41
39141;BME280;24875;48.436;10.298;2023-04-25T07:37:38;95559.53;;;11.06;77.84
39141;BME280;24875;48.436;10.298;2023-04-25T07:40:07;95576.41;;;11.52;75.41
39141;BME280;24875;48.436;10.298;2023-04-25T07:42:34;95574.25;;;11.28;73.45
39141;BME280;24875;48.436;10.298;2023-04-25T07:45:01;95569.59;;;11.30;74.21
39141;BME280;24875;48.436;10.298;2023-04-25T07:47:28;95573.28;;;10.95;74.83
39141;BME280;24875;48.436;10.298;2023-04-25T07:49:54;95574.97;;;11.09;75.76
39141;BME280;24875;48.436;10.298;2023-04-25T07:52:21;95585.88;;;11.00;74.47
39141;BME280;24875;48.436;10.298;2023-04-25T07:54:47;95582.44;;;10.66;76.78
39141;BME280;24875;48.436;10.298;2023-04-25T07:57:15;95577.81;;;10.74;77.44
39141;BME280;24875;48.436;10.298;2023-04-25T07:59:42;95580.13;;;10.90;77.95
39141;BME280;24875;48.436;10.298;2023-04-25T08:02:08;95578.03;;;11.13;76.59
39141;BME280;24875;48.436;10.298;2023-04-25T08:04:35;95577.50;;;11.30;76.22
39141;BME280;24875;48.436;10.298;2023-04-25T08:07:01;95575.00;;;11.22;77.63
39141;BME280;24875;48.436;10.298;2023-04-25T08:09:28;95582.53;;;11.19;76.17
39141;BME280;24875;48.436;10.298;2023-04-25T08:11:59;95588.44;;;11.34;76.84
39141;BME280;24875;48.436;10.298;2023-04-25T08:14:28;95580.78;;;11.45;77.12
39141;BME280;24875;48.436;10.298;2023-04-25T08:17:00;95582.47;;;11.53;75.39
39141;BME280;24875;48.436;10.298;2023-04-25T08:19:26;95584.41;;;11.38;75.10
39141;BME280;24875;48.436;10.298;2023-04-25T08:21:53;95584.34;;;11.25;75.51
39141;BME280;24875;48.436;10.298;2023-04-25T08:24:20;95580.75;;;11.39;77.56
39141;BME280;24875;48.436;10.298;2023-04-25T08:26:47;95592.00;;;11.13;75.89
39141;BME280;24875;48.436;10.298;2023-04-25T08:29:13;95582.81;;;10.96;75.86
39141;BME280;24875;48.436;10.298;2023-04-25T08:31:41;95592.41;;;11.10;77.13
39141;BME280;24875;48.436;10.298;2023-04-25T08:34:08;95597.81;;;10.62;78.10
39141;BME280;24875;48.436;10.298;2023-04-25T08:36:34;95598.25;;;10.66;79.43
39141;BME280;24875;48.436;10.298;2023-04-25T08:39:01;95609.50;;;10.26;84.90
39141;BME280;24875;48.436;10.298;2023-04-25T08:41:27;95611.88;;;10.00;86.79
39141;BME280;24875;48.436;10.298;2023-04-25T08:43:55;95608.09;;;9.88;83.72
39141;BME280;24875;48.436;10.298;2023-04-25T08:46:23;95621.66;;;9.71;94.70
39141;BME280;24875;48.436;10.298;2023-04-25T08:48:53;95630.41;;;9.22;99.17
39141;BME280;24875;48.436;10.298;2023-04-25T08:51:23;95635.91;;;9.41;100.00
39141;BME280;24875;48.436;10.298;2023-04-25T08:53:52;95648.84;;;9.43;99.00
39141;BME280;24875;48.436;10.298;2023-04-25T08:56:18;95658.28;;;9.52;100.00
39141;BME280;24875;48.436;10.298;2023-04-25T08:58:48;95650.09;;;9.61;100.00
39141;BME280;24875;48.436;10.298;2023-04-25T09:01:15;95652.75;;;9.47;100.00
39141;BME280;24875;48.436;10.298;2023-04-25T09:03:42;95631.81;;;9.39;100.00
39141;BME280;24875;48.436;10.298;2023-04-25T09:06:10;95621.94;;;9.26;96.51
39141;BME280;24875;48.436;10.298;2023-04-25T09:08:37;95630.13;;;9.67;97.77
39141;BME280;24875;48.436;10.298;2023-04-25T09:11:05;95637.50;;;9.77;93.47
39141;BME280;24875;48.436;10.298;2023-04-25T09:13:32;95644.22;;;10.15;90.05
39141;BME280;24875;48.436;10.298;2023-04-25T09:15:59;95644.81;;;10.38;87.10
39141;BME280;24875;48.436;10.298;2023-04-25T09:18:26;95642.44;;;10.70;91.58
39141;BME280;24875;48.436;10.298;2023-04-25T09:20:53;95644.31;;;10.76;89.95
39141;BME280;24875;48.436;10.298;2023-04-25T09:23:22;95642.19;;;11.26;91.62
39141;BME280;24875;48.436;10.298;2023-04-25T09:25:50;95649.19;;;11.06;97.15
39141;BME280;24875;48.436;10.298;2023-04-25T09:28:23;95649.03;;;11.14;93.53
39141;BME280;24875;48.436;10.298;2023-04-25T09:30:49;95650.94;;;10.99;98.95
39141;BME280;24875;48.436;10.298;2023-04-25T09:33:16;95641.72;;;11.10;90.12
39141;BME280;24875;48.436;10.298;2023-04-25T09:35:43;95645.41;;;11.22;90.55
39141;BME280;24875;48.436;10.298;2023-04-25T09:38:12;95649.16;;;11.40;89.88
39141;BME280;24875;48.436;10.298;2023-04-25T09:40:41;95651.00;;;11.46;88.25
39141;BME280;24875;48.436;10.298;2023-04-25T09:43:10;95662.53;;;11.39;91.29
39141;BME280;24875;48.436;10.298;2023-04-25T09:45:44;95669.59;;;11.25;89.39
39141;BME280;24875;48.436;10.298;2023-04-25T09:48:16;95672.41;;;11.24;86.23
39141;BME280;24875;48.436;10.298;2023-04-25T09:50:43;95672.53;;;11.43;89.78
39141;BME280;24875;48.436;10.298;2023-04-25T09:53:10;95673.59;;;11.21;86.78
39141;BME280;24875;48.436;10.298;2023-04-25T09:55:37;95668.94;;;11.23;86.36
39141;BME280;24875;48.436;10.298;2023-04-25T09:58:06;95673.44;;;11.23;89.77
39141;BME280;24875;48.436;10.298;2023-04-25T10:00:34;95666.16;;;10.97;91.01
39141;BME280;24875;48.436;10.298;2023-04-25T10:03:02;95672.97;;;10.86;92.00
39141;BME280;24875;48.436;10.298;2023-04-25T10:05:32;95683.53;;;10.65;96.73
39141;BME280;24875;48.436;10.298;2023-04-25T10:08:02;95675.88;;;10.42;100.00
39141;BME280;24875;48.436;10.298;2023-04-25T10:10:29;95682.75;;;10.43;100.00
39141;BME280;24875;48.436;10.298;2023-04-25T10:13:03;95682.25;;;10.13;100.00
39141;BME280;24875;48.436;10.298;2023-04-25T10:15:32;95675.31;;;10.26;100.00
39141;BME280;24875;48.436;10.298;2023-04-25T10:18:00;95680.72;;;9.68;100.00
39141;BME280;24875;48.436;10.298;2023-04-25T10:20:27;95680.38;;;9.92;100.00
39141;BME280;24875;48.436;10.298;2023-04-25T10:22:55;95686.88;;;9.75;98.77
39141;BME280;24875;48.436;10.298;2023-04-25T10:25:24;95685.22;;;9.54;98.05
39141;BME280;24875;48.436;10.298;2023-04-25T10:27:51;95692.81;;;9.63;95.47
39141;BME280;24875;48.436;10.298;2023-04-25T10:30:18;95701.59;;;9.56;100.00
39141;BME280;24875;48.436;10.298;2023-04-25T10:32:46;95709.81;;;9.32;100.00
39141;BME280;24875;48.436;10.298;2023-04-25T10:35:16;95725.41;;;9.33;100.00
39141;BME280;24875;48.436;10.298;2023-04-25T10:38:13;95735.91;;;9.19;100.00
39141;BME280;24875;48.436;10.298;2023-04-25T10:40:40;95730.06;;;8.80;100.00
39141;BME280;24875;48.436;10.298;2023-04-25T10:43:35;95742.31;;;8.88;100.00
39141;BME280;24875;48.436;10.298;2023-04-25T10:46:02;95745.78;;;8.44;100.00
39141;BME280;24875;48.436;10.298;2023-04-25T10:48:32;95756.13;;;7.92;100.00
39141;BME280;24875;48.436;10.298;2023-04-25T10:51:07;95757.97;;;7.84;100.00
39141;BME280;24875;48.436;10.298;2023-04-25T10:53:35;95755.19;;;7.86;100.00
39141;BME280;24875;48.436;10.298;2023-04-25T10:56:09;95759.22;;;7.96;100.00
39141;BME280;24875;48.436;10.298;2023-04-25T10:58:35;95760.94;;;7.81;100.00
39141;BME280;24875;48.436;10.298;2023-04-25T11:01:02;95764.50;;;7.88;100.00
39141;BME280;24875;48.436;10.298;2023-04-25T11:03:28;95758.63;;;7.86;100.00
39141;BME280;24875;48.436;10.298;2023-04-25T11:05:57;95756.91;;;8.01;100.00
39141;BME280;24875;48.436;10.298;2023-04-25T11:08:34;95742.78;;;8.02;100.00
39141;BME280;24875;48.436;10.298;2023-04-25T11:11:04;95747.59;;;8.21;100.00
39141;BME280;24875;48.436;10.298;2023-04-25T11:13:30;95748.41;;;8.44;100.00
39141;BME280;24875;48.436;10.298;2023-04-25T11:15:57;95748.06;;;8.69;100.00
39141;BME280;24875;48.436;10.298;2023-04-25T11:18:25;95749.41;;;9.02;100.00
39141;BME280;24875;48.436;10.298;2023-04-25T11:20:52;95749.59;;;9.29;100.00
39141;BME280;24875;48.436;10.298;2023-04-25T11:23:20;95756.94;;;9.48;100.00
39141;BME280;24875;48.436;10.298;2023-04-25T11:25:47;95753.41;;;9.55;100.00
39141;BME280;24875;48.436;10.298;2023-04-25T11:28:20;95760.84;;;9.66;100.00
39141;BME280;24875;48.436;10.298;2023-04-25T11:30:48;95762.66;;;9.37;100.00
39141;BME280;24875;48.436;10.298;2023-04-25T11:33:15;95758.84;;;9.25;100.00
39141;BME280;24875;48.436;10.298;2023-04-25T11:35:41;95764.22;;;9.46;100.00
39141;BME280;24875;48.436;10.298;2023-04-25T11:38:08;95758.59;;;9.49;100.00
39141;BME280;24875;48.436;10.298;2023-04-25T11:40:36;95761.00;;;9.21;100.00
39141;BME280;24875;48.436;10.298;2023-04-25T11:43:03;95763.19;;;9.18;100.00
39141;BME280;24875;48.436;10.298;2023-04-25T11:45:29;95767.78;;;9.02;100.00
39141;BME280;24875;48.436;10.298;2023-04-25T11:47:56;95759.94;;;8.79;100.00
39141;BME280;24875;48.436;10.298;2023-04-25T11:50:23;95760.22;;;8.84;100.00
39141;BME280;24875;48.436;10.298;2023-04-25T11:52:49;95768.84;;;8.78;100.00
39141;BME280;24875;48.436;10.298;2023-04-25T11:55:18;95765.75;;;8.89;100.00
39141;BME280;24875;48.436;10.298;2023-04-25T11:57:48;95765.06;;;8.95;100.00
39141;BME280;24875;48.436;10.298;2023-04-25T12:00:17;95773.34;;;8.84;100.00
39141;BME280;24875;48.436;10.298;2023-04-25T12:02:46;95776.47;;;9.02;100.00
39141;BME280;24875;48.436;10.298;2023-04-25T12:05:14;95774.97;;;9.08;100.00
39141;BME280;24875;48.436;10.298;2023-04-25T12:07:41;95779.75;;;8.90;100.00
39141;BME280;24875;48.436;10.298;2023-04-25T12:10:09;95783.78;;;8.55;100.00
39141;BME280;24875;48.436;10.298;2023-04-25T12:12:37;95791.13;;;8.82;100.00
39141;BME280;24875;48.436;10.298;2023-04-25T12:15:13;95788.72;;;9.09;100.00
39141;BME280;24875;48.436;10.298;2023-04-25T12:17:41;95799.91;;;8.89;100.00
39141;BME280;24875;48.436;10.298;2023-04-25T12:20:10;95794.53;;;8.68;100.00
39141;BME280;24875;48.436;10.298;2023-04-25T12:22:37;95801.81;;;8.81;100.00
39141;BME280;24875;48.436;10.298;2023-04-25T12:25:04;95797.28;;;8.89;100.00
39141;BME280;24875;48.436;10.298;2023-04-25T12:27:31;95803.25;;;8.83;100.00
39141;BME280;24875;48.436;10.298;2023-04-25T12:29:58;95802.19;;;8.92;100.00
39141;BME280;24875;48.436;10.298;2023-04-25T12:32:26;95810.03;;;9.00;100.00
39141;BME280;24875;48.436;10.298;2023-04-25T12:34:53;95803.53;;;9.25;100.00
39141;BME280;24875;48.436;10.298;2023-04-25T12:37:19;95813.44;;;9.37;100.00
39141;BME280;24875;48.436;10.298;2023-04-25T12:39:46;95809.16;;;9.51;100.00
39141;BME280;24875;48.436;10.298;2023-04-25T12:42:12;95815.47;;;9.13;100.00
39141;BME280;24875;48.436;10.298;2023-04-25T12:44:39;95817.66;;;9.24;100.00
39141;BME280;24875;48.436;10.298;2023-04-25T12:47:06;95807.59;;;9.13;100.00
39141;BME280;24875;48.436;10.298;2023-04-25T12:49:34;95825.00;;;9.14;100.00
39141;BME280;24875;48.436;10.298;2023-04-25T12:52:00;95828.66;;;8.68;100.00
39141;BME280;24875;48.436;10.298;2023-04-25T12:54:27;95842.50;;;8.62;100.00
39141;BME280;24875;48.436;10.298;2023-04-25T12:56:53;95838.53;;;8.36;100.00